Time;durP1;ratioP1;P1;durP2;ratioP2;P2;SDS_P1;SDS_P2;PMS_P1;PMS_P2;Temp;Humidity;BMP_temperature;BMP_pressure;BME280_temperature;BME280_humidity;BME280_pressure;Samples;Min_cycle;Max_cycle;Signal;HPM_P1;HPM_P2
2021/12/05 10:01:31;;;;;;;5.97;3.50;;;5.00;99.90;;;;;;1884615;76;21074;-77
2021/12/05 10:03:11;;;;;;;6.40;4.00;;;5.30;99.90;;;;;;1904378;75;21125;-76
2021/12/05 10:09:30;;;;;;;5.78;3.20;;;5.40;99.90;;;;;;1899762;75;21176;-76
2021/12/05 10:12:43;;;;;;;6.40;3.05;;;5.40;99.90;;;;;;1885246;75;21164;-76
2021/12/05 10:18:33;;;;;;;5.92;3.02;;;5.60;99.90;;;;;;1957740;72;22194;-77
2021/12/05 10:34:45;;;;;;;5.37;2.10;;;6.10;99.90;;;;;;1886652;75;21162;-77
2021/12/05 10:37:49;;;;;;;4.20;2.33;;;6.20;99.90;;;;;;1906862;75;21050;-77
2021/12/05 10:40:42;;;;;;;10.48;6.40;;;6.30;99.90;;;;;;1885282;75;21670;-77
2021/12/05 10:43:33;;;;;;;10.88;4.87;;;6.40;99.90;;;;;;1898929;75;21139;-77
2021/12/05 10:46:29;;;;;;;7.05;2.90;;;6.40;99.90;;;;;;1886032;75;21148;-77
2021/12/05 10:49:24;;;;;;;4.22;2.50;;;6.50;99.90;;;;;;1899372;75;21105;-77
2021/12/05 10:52:36;;;;;;;6.42;2.45;;;6.50;99.90;;;;;;1900308;75;21260;-78
2021/12/05 10:58:10;;;;;;;5.10;2.00;;;6.60;99.90;;;;;;1967223;72;22110;-77
2021/12/05 11:01:17;;;;;;;4.58;1.90;;;6.60;99.90;;;;;;1906281;73;21169;-77
2021/12/05 11:04:29;;;;;;;4.50;2.20;;;6.50;99.90;;;;;;1905106;75;21152;-77
2021/12/05 11:10:13;;;;;;;5.15;2.10;;;6.50;99.90;;;;;;1933573;72;22233;-77
2021/12/05 11:13:12;;;;;;;6.12;2.00;;;6.60;99.90;;;;;;1899231;75;21153;-77
2021/12/05 11:16:08;;;;;;;6.53;2.65;;;6.60;99.90;;;;;;1894942;75;21115;-77
2021/12/05 11:19:00;;;;;;;3.98;2.60;;;6.60;99.90;;;;;;1895402;75;21062;-77
2021/12/05 11:22:17;;;;;;;5.50;2.65;;;6.30;99.90;;;;;;1916249;75;21092;-77
2021/12/05 11:25:12;;;;;;;4.60;3.10;;;6.20;99.90;;;;;;1904070;75;21154;-77
2021/12/05 11:28:08;;;;;;;5.10;3.42;;;6.10;99.90;;;;;;1899615;75;21159;-76
2021/12/05 11:31:00;;;;;;;6.70;3.40;;;6.20;99.90;;;;;;1917071;75;21055;-76
2021/12/05 11:33:54;;;;;;;5.75;3.02;;;6.20;99.90;;;;;;1895206;75;21054;-76
2021/12/05 11:36:51;;;;;;;5.87;3.62;;;6.10;99.90;;;;;;1895406;75;21110;-77
2021/12/05 11:39:46;;;;;;;5.15;3.33;;;6.10;99.90;;;;;;1881554;75;21695;-77
2021/12/05 11:42:56;;;;;;;5.70;3.45;;;6.00;99.90;;;;;;1891662;75;21062;-77
2021/12/05 11:45:52;;;;;;;;;;;6.00;99.90;;;;;;1886076;75;21221;-77
2021/12/05 11:48:46;;;;;;;8.05;3.50;;;6.00;99.90;;;;;;1895291;75;20164;-77
2021/12/05 11:51:41;;;;;;;5.70;3.27;;;6.10;99.90;;;;;;1891411;75;21106;-76
2021/12/05 11:54:37;;;;;;;7.83;3.30;;;5.90;99.90;;;;;;1904855;75;21120;-76
2021/12/05 11:57:29;;;;;;;5.10;2.90;;;6.00;99.90;;;;;;1893475;73;21123;-77
2021/12/05 12:00:23;;;;;;;5.03;3.00;;;6.10;99.90;;;;;;1881178;75;21262;-76
2021/12/05 12:03:14;;;;;;;10.90;4.53;;;6.30;99.90;;;;;;1889130;75;21168;-76
2021/12/05 12:06:07;;;;;;;7.22;2.75;;;6.50;99.90;;;;;;1897271;75;21157;-77
2021/12/05 12:08:58;;;;;;;5.55;3.02;;;6.50;99.90;;;;;;1894048;74;21171;-73
2021/12/05 12:11:49;;;;;;;17.65;8.08;;;6.60;99.90;;;;;;1892390;75;21232;-76
2021/12/05 12:17:19;;;;;;;4.83;2.47;;;7.10;99.90;;;;;;1932305;72;22257;-77
2021/12/05 12:20:16;;;;;;;5.25;2.25;;;7.30;99.90;;;;;;1900361;75;21573;-77
2021/12/05 12:23:07;;;;;;;5.78;2.10;;;7.20;99.90;;;;;;1884556;75;21071;-77
2021/12/05 12:26:01;;;;;;;2.60;1.50;;;6.70;99.90;;;;;;1892192;75;21055;-77
2021/12/05 12:29:13;;;;;;;3.87;1.35;;;6.30;99.90;;;;;;1884766;75;21104;-77
2021/12/05 12:32:11;;;;;;;3.40;1.70;;;6.10;99.90;;;;;;1890240;75;21172;-78
2021/12/05 12:35:10;;;;;;;3.60;1.57;;;5.90;99.90;;;;;;1883106;76;21066;-78
2021/12/05 12:40:48;;;;;;;1.72;1.00;;;6.20;99.90;;;;;;1938433;72;22146;-78
2021/12/05 12:46:31;;;;;;;3.58;1.62;;;6.30;99.90;;;;;;1959796;72;22143;-79
2021/12/05 12:49:30;;;;;;;2.70;1.40;;;6.40;99.90;;;;;;1920452;73;21126;-79
2021/12/05 12:52:23;;;;;;;4.53;1.60;;;6.40;99.90;;;;;;1928959;73;21101;-78
2021/12/05 12:55:15;;;;;;;2.83;1.80;;;6.50;99.90;;;;;;1923209;73;21079;-78
2021/12/05 12:58:48;;;;;;;2.80;1.57;;;6.50;99.90;;;;;;1880594;76;21042;-80
2021/12/05 13:02:04;;;;;;;2.95;1.42;;;6.40;99.90;;;;;;1917621;75;21062;-78
2021/12/05 13:11:25;;;;;;;3.17;1.32;;;6.30;99.90;;;;;;1902014;73;21090;-85
2021/12/05 13:14:20;;;;;;;3.25;1.40;;;6.40;99.90;;;;;;1947291;73;21142;-83
2021/12/05 13:17:25;;;;;;;3.10;1.62;;;6.40;99.90;;;;;;1917252;75;21075;-83
2021/12/05 13:23:43;;;;;;;3.22;1.32;;;6.50;99.90;;;;;;1948078;72;23283;-85
2021/12/05 13:26:44;;;;;;;3.63;1.00;;;6.60;99.90;;;;;;1927504;73;21105;-85
2021/12/05 13:29:51;;;;;;;3.15;1.25;;;6.60;99.90;;;;;;1917424;75;21506;-84
2021/12/05 13:32:46;;;;;;;2.87;1.52;;;6.60;99.90;;;;;;1916845;73;21148;-84
2021/12/05 13:35:58;;;;;;;2.58;1.55;;;6.80;99.90;;;;;;1917303;75;21128;-84
2021/12/05 13:38:52;;;;;;;3.80;1.25;;;6.90;99.90;;;;;;1920058;75;21109;-83
2021/12/05 13:41:52;;;;;;;4.12;1.80;;;7.00;99.90;;;;;;1917310;73;21122;-83
2021/12/05 13:48:33;;;;;;;4.05;1.92;;;7.00;99.90;;;;;;1919112;72;27918;-83
2021/12/05 13:51:26;;;;;;;3.70;1.65;;;7.10;99.90;;;;;;1906288;75;21169;-83
2021/12/05 13:54:28;;;;;;;1.62;0.37;;;7.00;99.90;;;;;;1886914;75;21153;-83
2021/12/05 13:57:22;;;;;;;1.00;0.30;;;6.00;99.90;;;;;;1903008;75;21534;-84
2021/12/05 14:00:44;;;;;;;0.65;0.33;;;5.20;99.90;;;;;;1883939;76;21157;-84
2021/12/05 14:03:54;;;;;;;0.37;0.30;;;4.50;99.90;;;;;;1906122;75;21181;-83
2021/12/05 14:06:57;;;;;;;1.80;0.50;;;4.30;99.90;;;;;;1905786;75;21087;-84
2021/12/05 14:09:53;;;;;;;0.70;0.33;;;4.10;99.90;;;;;;1909094;75;21195;-86
2021/12/05 14:12:46;;;;;;;2.95;0.60;;;4.10;99.90;;;;;;1917072;75;21109;-84
2021/12/05 14:15:45;;;;;;;1.72;0.55;;;4.10;99.90;;;;;;1903201;75;21143;-84
2021/12/05 14:18:37;;;;;;;1.85;0.57;;;4.20;99.90;;;;;;1907718;74;21043;-85
2021/12/05 14:21:31;;;;;;;0.90;0.45;;;4.20;99.90;;;;;;1902053;75;21090;-85
2021/12/05 14:24:24;;;;;;;1.87;0.45;;;4.30;99.90;;;;;;1888441;75;21593;-85
2021/12/05 14:27:21;;;;;;;1.30;0.47;;;4.30;99.90;;;;;;1885084;75;21058;-85
2021/12/05 14:30:24;;;;;;;1.37;0.70;;;4.40;99.90;;;;;;1892464;75;21100;-86
2021/12/05 14:33:15;;;;;;;1.85;0.50;;;4.50;99.90;;;;;;1902335;73;21090;-84
2021/12/05 14:36:07;;;;;;;1.95;0.60;;;4.50;99.90;;;;;;1884244;73;21101;-85
2021/12/05 14:42:08;;;;;;;1.45;1.05;;;4.50;99.90;;;;;;1919044;72;28204;-85
2021/12/05 14:45:21;;;;;;;1.15;0.80;;;4.70;99.90;;;;;;1898634;74;21146;-85
2021/12/05 15:03:17;;;;;;;1.82;1.20;;;4.80;99.90;;;;;;1917983;74;22301;-86
2021/12/05 15:06:11;;;;;;;2.60;1.30;;;5.00;99.90;;;;;;1873636;75;21142;-86
2021/12/05 15:09:08;;;;;;;2.12;1.30;;;5.00;99.90;;;;;;1884757;74;21129;-86
2021/12/05 15:28:45;;;;;;;3.95;2.30;;;5.10;99.90;;;;;;1944581;72;22291;-87
2021/12/05 15:31:39;;;;;;;5.00;3.10;;;5.10;99.90;;;;;;1910098;74;21188;-87
2021/12/05 15:37:17;;;;;;;5.28;3.40;;;5.10;99.90;;;;;;1910832;72;22333;-87
2021/12/05 15:40:09;;;;;;;6.47;3.83;;;5.10;99.90;;;;;;1876147;76;21094;-87
2021/12/05 15:43:07;;;;;;;9.23;6.62;;;5.00;99.90;;;;;;1889029;75;21093;-86
2021/12/05 15:45:59;;;;;;;7.30;3.75;;;5.00;99.90;;;;;;1887166;75;21058;-87
2021/12/05 15:49:12;;;;;;;5.15;3.45;;;5.00;99.90;;;;;;1887270;75;21046;-87
2021/12/05 15:52:17;;;;;;;16.93;10.48;;;5.00;99.90;;;;;;1886549;75;21151;-87
2021/12/05 15:55:14;;;;;;;8.08;4.60;;;5.00;99.90;;;;;;1910354;75;21128;-87
2021/12/05 15:58:09;;;;;;;6.45;4.05;;;5.00;99.90;;;;;;1909587;75;21082;-86
2021/12/05 16:01:03;;;;;;;4.83;3.60;;;5.00;99.90;;;;;;1884188;76;21109;-85
2021/12/05 16:03:57;;;;;;;5.30;3.33;;;5.00;99.90;;;;;;1889946;75;21174;-85
2021/12/05 16:06:50;;;;;;;5.40;3.22;;;4.90;99.90;;;;;;1875561;75;21115;-86
2021/12/05 16:09:43;;;;;;;4.53;3.35;;;4.90;99.90;;;;;;1879816;75;21171;-86
2021/12/05 16:12:38;;;;;;;5.28;4.17;;;4.90;99.90;;;;;;1888307;75;21129;-85
2021/12/05 16:15:30;;;;;;;9.88;4.90;;;4.90;99.90;;;;;;1887322;75;21751;-86
2021/12/05 16:18:23;;;;;;;10.28;6.92;;;4.80;99.90;;;;;;1888510;75;21148;-85
2021/12/05 16:21:27;;;;;;;7.30;4.47;;;4.80;99.90;;;;;;1903964;75;21161;-85
2021/12/05 16:24:20;;;;;;;5.42;4.58;;;4.90;99.90;;;;;;1877938;75;21120;-85
2021/12/05 16:27:40;;;;;;;8.00;5.08;;;4.80;99.90;;;;;;1909859;75;21152;-85
2021/12/05 16:31:05;;;;;;;7.03;4.67;;;4.80;99.90;;;;;;1907612;75;21135;-86
2021/12/05 16:33:59;;;;;;;8.13;4.85;;;4.80;99.90;;;;;;1909927;74;21105;-85
2021/12/05 16:42:17;;;;;;;5.60;4.33;;;4.80;99.90;;;;;;1910858;72;22212;-85
2021/12/05 16:45:10;;;;;;;10.72;6.62;;;4.80;99.90;;;;;;1909140;75;21137;-85
2021/12/05 16:48:01;;;;;;;10.25;6.72;;;4.80;99.90;;;;;;1896728;75;21105;-85
2021/12/05 16:50:54;;;;;;;8.35;5.90;;;4.80;99.90;;;;;;1899197;75;21106;-85
2021/12/05 16:54:09;;;;;;;12.80;7.27;;;4.80;99.90;;;;;;1910440;75;21067;-84
2021/12/05 16:57:03;;;;;;;10.13;6.60;;;4.70;99.90;;;;;;1907396;75;21112;-85
2021/12/05 16:59:57;;;;;;;7.90;5.90;;;4.70;99.90;;;;;;1906601;75;21062;-84
2021/12/05 17:02:53;;;;;;;6.78;5.70;;;4.80;99.90;;;;;;1897061;75;21170;-84
2021/12/05 17:05:48;;;;;;;5.95;5.10;;;4.70;99.90;;;;;;1906023;75;21217;-84
2021/12/05 17:11:26;;;;;;;6.40;4.62;;;4.60;99.90;;;;;;1936494;72;22546;-88
2021/12/05 17:14:26;;;;;;;7.25;5.20;;;4.50;99.90;;;;;;1888165;75;21102;-86
2021/12/05 17:17:32;;;;;;;6.03;4.50;;;4.50;99.90;;;;;;1886859;75;21143;-87
2021/12/05 17:20:27;;;;;;;8.15;3.50;;;4.40;99.90;;;;;;1898021;75;21147;-87
2021/12/05 17:23:40;;;;;;;3.92;2.67;;;4.40;99.90;;;;;;1903599;75;21082;-87
2021/12/05 17:26:35;;;;;;;4.95;2.80;;;4.30;99.90;;;;;;1888128;75;21478;-86
2021/12/05 17:29:29;;;;;;;4.72;2.72;;;4.20;99.90;;;;;;1907746;75;21059;-87
2021/12/05 17:35:02;;;;;;;5.00;2.35;;;4.10;99.90;;;;;;1943377;72;22154;-87
2021/12/05 17:40:38;;;;;;;5.35;3.37;;;4.10;99.90;;;;;;1957124;72;22139;-86
2021/12/05 17:43:30;;;;;;;5.65;3.90;;;4.10;99.90;;;;;;1891461;75;21114;-87
2021/12/05 17:46:25;;;;;;;7.05;3.90;;;4.20;99.90;;;;;;1899779;75;21153;-86
2021/12/05 17:49:19;;;;;;;7.47;4.25;;;4.20;99.90;;;;;;1899886;75;21112;-86
2021/12/05 17:52:31;;;;;;;9.05;4.67;;;4.10;99.90;;;;;;1887053;75;21142;-87
2021/12/05 17:55:27;;;;;;;8.68;5.45;;;4.20;99.90;;;;;;1873981;75;21123;-87
2021/12/05 18:04:24;;;;;;;10.32;6.17;;;4.20;99.90;;;;;;1892236;75;21110;-85
2021/12/05 18:09:59;;;;;;;9.13;5.60;;;4.30;99.90;;;;;;1941951;72;22193;-85
2021/12/05 18:15:36;;;;;;;6.15;4.83;;;4.40;99.90;;;;;;1946619;72;22212;-86
2021/12/05 18:21:09;;;;;;;9.98;6.50;;;4.40;99.90;;;;;;1928243;72;22231;-86
2021/12/05 18:24:00;;;;;;;8.93;6.72;;;4.40;99.90;;;;;;1893991;75;21110;-85
2021/12/05 18:26:54;;;;;;;8.83;6.83;;;4.50;99.90;;;;;;1889019;75;21142;-86
2021/12/05 18:29:48;;;;;;;8.88;6.40;;;4.50;99.90;;;;;;1868221;76;21107;-86
2021/12/05 18:35:43;;;;;;;7.67;5.50;;;4.50;99.90;;;;;;1938820;72;22142;-86
2021/12/05 18:38:34;;;;;;;7.55;5.50;;;4.60;99.90;;;;;;1904894;75;21240;-86
2021/12/05 18:41:28;;;;;;;7.30;4.72;;;4.50;99.90;;;;;;1895492;75;21172;-86
2021/12/05 18:44:24;;;;;;;7.08;4.70;;;4.40;99.90;;;;;;1874483;75;21153;-86
2021/12/05 18:47:31;;;;;;;7.65;5.17;;;4.50;99.90;;;;;;1872111;76;21154;-86
2021/12/05 18:50:22;;;;;;;8.65;5.50;;;4.50;99.90;;;;;;1885287;75;21196;-85
2021/12/05 18:55:53;;;;;;;8.25;4.00;;;4.50;99.90;;;;;;1953452;72;22211;-86
2021/12/05 18:58:45;;;;;;;5.80;3.60;;;4.60;99.90;;;;;;1922824;74;21091;-86
2021/12/05 19:04:49;;;;;;;4.47;2.60;;;4.40;99.90;;;;;;1904638;75;21050;-87
2021/12/05 19:16:30;;;;;;;3.10;2.10;;;4.10;99.90;;;;;;1950559;72;22353;-86
2021/12/05 19:22:02;;;;;;;3.15;2.22;;;4.00;99.90;;;;;;1945263;72;22318;-86
2021/12/05 19:24:54;;;;;;;2.37;1.90;;;3.90;99.90;;;;;;1902505;75;21055;-86
2021/12/05 19:27:51;;;;;;;2.80;1.80;;;3.90;99.90;;;;;;1901348;75;21086;-85
2021/12/05 19:30:45;;;;;;;3.37;2.37;;;3.90;99.90;;;;;;1908711;75;21091;-87
2021/12/05 19:33:56;;;;;;;3.45;2.30;;;3.80;99.90;;;;;;1899808;75;21018;-85
2021/12/05 19:36:48;;;;;;;3.67;2.30;;;3.80;99.90;;;;;;1892291;75;21118;-87
2021/12/05 19:42:25;;;;;;;2.60;2.40;;;3.70;99.90;;;;;;1974664;72;22111;-87
2021/12/05 19:45:17;;;;;;;3.58;2.42;;;3.80;99.90;;;;;;1924661;74;21165;-86
2021/12/05 19:50:50;;;;;;;4.33;2.42;;;3.70;99.90;;;;;;1951844;72;22127;-86
2021/12/05 19:53:47;;;;;;;3.17;2.27;;;3.60;99.90;;;;;;1900630;75;21167;-86
2021/12/05 19:59:23;;;;;;;4.10;2.77;;;3.70;99.90;;;;;;1945676;72;22123;-86
2021/12/05 20:02:15;;;;;;;5.85;3.95;;;3.60;99.90;;;;;;1895024;75;21098;-85
2021/12/05 20:05:10;;;;;;;4.05;3.20;;;3.50;99.90;;;;;;1894294;75;21137;-86
2021/12/05 20:08:02;;;;;;;3.85;2.80;;;3.50;99.90;;;;;;1873301;75;21169;-86
2021/12/05 20:11:12;;;;;;;4.30;3.05;;;3.50;99.90;;;;;;1896167;75;21081;-86
2021/12/05 20:14:09;;;;;;;5.15;3.00;;;3.50;99.90;;;;;;1904838;75;21103;-87
2021/12/05 20:19:41;;;;;;;4.35;3.42;;;3.40;99.90;;;;;;1952227;72;22272;-87
2021/12/05 20:22:36;;;;;;;3.80;3.10;;;3.30;99.90;;;;;;1897665;75;21157;-86
2021/12/05 20:25:31;;;;;;;3.08;2.72;;;3.30;99.90;;;;;;1914844;75;21175;-86
2021/12/05 20:28:22;;;;;;;4.35;3.10;;;3.40;99.90;;;;;;1905539;75;21142;-86
2021/12/05 20:31:34;;;;;;;4.20;3.02;;;3.30;99.90;;;;;;1911006;75;21098;-86
2021/12/05 20:37:10;;;;;;;5.42;3.80;;;3.30;99.90;;;;;;1959890;72;22107;-86
2021/12/05 20:42:41;;;;;;;5.17;3.80;;;3.20;99.90;;;;;;1932625;72;22201;-86
2021/12/05 20:45:33;;;;;;;4.65;3.80;;;3.30;99.90;;;;;;1898506;75;21565;-86
2021/12/05 20:48:28;;;;;;;5.20;4.70;;;3.30;99.90;;;;;;1888843;75;21079;-86
2021/12/05 20:51:22;;;;;;;4.65;4.12;;;3.30;99.90;;;;;;1883545;75;21076;-86
2021/12/05 20:54:35;;;;;;;5.28;4.45;;;3.40;99.90;;;;;;1903814;75;21074;-88
2021/12/05 21:00:08;;;;;;;5.58;4.22;;;3.40;99.90;;;;;;1950185;72;22662;-86
2021/12/05 21:03:03;;;;;;;5.50;4.65;;;3.40;99.90;;;;;;1917524;75;21069;-86
2021/12/05 21:06:00;;;;;;;5.50;4.85;;;3.40;99.90;;;;;;1917748;75;21223;-85
2021/12/05 21:08:49;;;;;;;6.10;5.50;;;3.40;99.90;;;;;;1919370;73;21062;-86
2021/12/05 21:11:59;;;;;;;5.75;4.80;;;3.50;99.90;;;;;;1923026;73;21078;-87
2021/12/05 21:14:51;;;;;;;6.72;4.70;;;3.50;99.90;;;;;;1919256;73;21187;-87
2021/12/05 21:20:21;;;;;;;8.75;6.05;;;3.30;99.90;;;;;;1963459;72;22341;-86
2021/12/05 21:25:55;;;;;;;7.83;6.33;;;3.20;99.90;;;;;;1956948;72;22142;-87
2021/12/05 21:31:26;;;;;;;6.10;5.17;;;3.10;99.90;;;;;;1932160;72;22127;-87
2021/12/05 21:34:18;;;;;;;5.67;4.10;;;3.20;99.90;;;;;;1870481;75;21676;-85
2021/12/05 21:37:10;;;;;;;8.18;5.45;;;3.20;99.90;;;;;;1905122;75;21087;-85
2021/12/05 21:42:45;;;;;;;7.85;5.85;;;3.20;99.90;;;;;;1944416;72;22222;-86
2021/12/05 21:45:38;;;;;;;6.97;5.75;;;3.20;99.90;;;;;;1899684;75;21060;-85
2021/12/05 21:51:16;;;;;;;7.95;7.15;;;3.00;99.90;;;;;;1944284;72;28121;-86
2021/12/05 21:54:07;;;;;;;6.42;5.60;;;3.00;99.90;;;;;;1924213;74;21044;-85
2021/12/05 21:56:59;;;;;;;7.50;5.87;;;3.00;99.90;;;;;;1908969;74;21118;-85
2021/12/05 22:02:29;;;;;;;6.37;5.10;;;2.60;99.90;;;;;;1941824;72;22279;-86
2021/12/05 22:05:22;;;;;;;5.85;4.80;;;2.40;99.90;;;;;;1928788;74;21220;-86
2021/12/05 22:08:13;;;;;;;4.80;3.92;;;2.20;99.90;;;;;;1925106;74;21113;-85
2021/12/05 22:11:05;;;;;;;3.98;3.33;;;2.10;99.90;;;;;;1913762;73;21047;-85
2021/12/05 22:16:54;;;;;;;4.97;4.45;;;1.90;99.90;;;;;;1930578;72;22218;-85
2021/12/05 22:19:50;;;;;;;7.95;6.60;;;1.70;99.90;;;;;;1895498;75;21151;-85
2021/12/05 22:25:20;;;;;;;8.95;6.67;;;1.60;99.90;;;;;;1936328;72;22215;-86
2021/12/05 22:28:12;;;;;;;7.47;6.25;;;1.50;99.90;;;;;;1897930;75;21102;-85
2021/12/05 22:31:03;;;;;;;8.45;7.00;;;1.30;99.90;;;;;;1893756;75;21044;-85
2021/12/05 22:33:55;;;;;;;7.62;6.35;;;1.30;99.90;;;;;;1873028;76;21063;-85
2021/12/05 22:37:05;;;;;;;7.12;6.28;;;1.30;99.90;;;;;;1874028;75;21094;-86
2021/12/05 22:39:59;;;;;;;7.17;5.85;;;1.20;99.90;;;;;;1873054;76;21180;-86
2021/12/05 22:45:30;;;;;;;5.37;4.72;;;1.50;99.90;;;;;;1945602;72;22218;-86
2021/12/05 22:50:59;;;;;;;4.50;3.87;;;1.50;99.90;;;;;;1958262;72;22158;-86
2021/12/05 22:53:51;;;;;;;4.92;3.62;;;1.50;99.90;;;;;;1884185;74;21047;-86
2021/12/05 22:59:27;;;;;;;6.22;4.20;;;1.60;99.90;;;;;;1938973;72;22273;-86
2021/12/05 23:02:19;;;;;;;4.83;4.30;;;1.60;99.90;;;;;;1887737;74;21055;-85
2021/12/05 23:05:11;;;;;;;5.87;5.28;;;1.60;99.90;;;;;;1910263;75;21124;-85
2021/12/05 23:08:02;;;;;;;5.12;4.53;;;1.60;99.90;;;;;;1906703;75;21087;-85
2021/12/05 23:11:14;;;;;;;5.28;4.78;;;1.60;99.90;;;;;;1903737;75;21114;-85
2021/12/05 23:14:08;;;;;;;5.62;5.03;;;1.70;99.90;;;;;;1895256;75;21175;-86
2021/12/05 23:16:59;;;;;;;4.40;4.00;;;1.80;99.90;;;;;;1907850;75;21099;-85
2021/12/05 23:19:51;;;;;;;4.20;3.40;;;1.80;99.90;;;;;;1906729;75;21076;-85
2021/12/05 23:25:22;;;;;;;4.22;3.65;;;1.90;99.90;;;;;;1950950;72;22100;-85
2021/12/05 23:28:13;;;;;;;3.60;3.25;;;1.90;99.90;;;;;;1912115;74;21161;-85
2021/12/05 23:31:05;;;;;;;3.60;3.27;;;1.90;99.90;;;;;;1883595;75;21158;-85
2021/12/05 23:33:57;;;;;;;4.25;3.70;;;1.90;99.90;;;;;;1904273;75;21062;-85
2021/12/05 23:37:08;;;;;;;3.92;3.30;;;2.00;99.90;;;;;;1876756;75;21131;-85
2021/12/05 23:39:59;;;;;;;3.40;3.10;;;2.10;99.90;;;;;;1902478;75;21079;-85
2021/12/05 23:42:51;;;;;;;3.42;2.77;;;2.10;99.90;;;;;;1874863;75;21098;-85
2021/12/05 23:45:44;;;;;;;3.92;3.40;;;2.10;99.90;;;;;;1894723;75;21134;-85
2021/12/05 23:51:21;;;;;;;3.75;2.67;;;2.10;99.90;;;;;;1949837;72;22234;-86
2021/12/05 23:54:13;;;;;;;3.12;2.70;;;2.10;99.90;;;;;;1900393;75;21099;-85
2021/12/05 23:57:05;;;;;;;3.47;2.80;;;2.10;99.90;;;;;;1894821;75;21199;-85
